Time;durP1;ratioP1;P1;durP2;ratioP2;P2;SDS_P1;SDS_P2;PMS_P1;PMS_P2;Temp;Humidity;BMP_temperature;BMP_pressure;BME280_temperature;BME280_humidity;BME280_pressure;Samples;Min_cycle;Max_cycle;Signal;HPM_P1;HPM_P2
2022/06/22 21:11:20;;;;;;;28.65;8.50;;;;;;;;;;5072454;27;20795;-66
2022/06/22 21:13:58;;;;;;;17.52;3.83;;;;;;;;;;5064067;28;20041;-65
2022/06/22 21:16:45;;;;;;;16.15;4.60;;;;;;;;;;5064199;28;20072;-65
2022/06/22 21:19:11;;;;;;;22.80;4.45;;;;;;;;;;5021304;28;20050;-65
2022/06/22 21:21:53;;;;;;;17.83;2.90;;;;;;;;;;5024842;28;20148;-65
2022/06/22 21:24:20;;;;;;;18.33;2.38;;;;;;;;;;5021731;28;20057;-65
2022/06/22 21:26:48;;;;;;;16.05;2.42;;;;;;;;;;5023274;28;20081;-65
2022/06/22 21:29:39;;;;;;;38.28;4.85;;;;;;;;;;5025132;28;20521;-65
2022/06/22 21:32:11;;;;;;;38.55;6.55;;;;;;;;;;5032131;28;20588;-65
2022/06/22 21:34:44;;;;;;;20.73;2.78;;;;;;;;;;5021409;28;20061;-65
2022/06/22 21:37:13;;;;;;;19.65;3.63;;;;;;;;;;5021518;28;20062;-65
2022/06/22 21:39:55;;;;;;;32.70;3.35;;;;;;;;;;5021140;28;20076;-66
2022/06/22 21:42:24;;;;;;;12.85;1.42;;;;;;;;;;5021816;28;20439;-66
2022/06/22 21:44:52;;;;;;;33.13;3.70;;;;;;;;;;5021929;28;20548;-68
2022/06/22 21:47:35;;;;;;;42.85;4.65;;;;;;;;;;5025190;28;20049;-66
2022/06/22 21:50:10;;;;;;;17.60;1.42;;;;;;;;;;5025153;28;20557;-67
2022/06/22 21:53:00;;;;;;;10.80;1.30;;;;;;;;;;5021027;28;20571;-67
2022/06/22 21:55:34;;;;;;;21.05;2.08;;;;;;;;;;4966608;28;20090;-67
2022/06/22 21:58:01;;;;;;;10.10;1.08;;;;;;;;;;4997499;28;20046;-67
2022/06/22 22:00:53;;;;;;;26.80;2.58;;;;;;;;;;4997149;28;20518;-67
2022/06/22 22:03:22;;;;;;;28.65;5.93;;;;;;;;;;4995406;28;20064;-66
2022/06/22 22:06:08;;;;;;;18.50;1.83;;;;;;;;;;4999708;28;20098;-67
2022/06/22 22:08:50;;;;;;;14.40;1.55;;;;;;;;;;4998151;28;20042;-64
2022/06/22 22:11:18;;;;;;;19.77;2.33;;;;;;;;;;5003930;28;20053;-65
2022/06/22 22:13:47;;;;;;;10.82;1.27;;;;;;;;;;4997081;28;20097;-64
2022/06/22 22:16:16;;;;;;;23.75;3.42;;;;;;;;;;4996586;28;20541;-63
2022/06/22 22:18:44;;;;;;;22.10;3.67;;;;;;;;;;4989276;28;20054;-66
2022/06/22 22:21:29;;;;;;;13.98;1.70;;;;;;;;;;4992453;28;20142;-67
2022/06/22 22:24:04;;;;;;;16.73;2.33;;;;;;;;;;4984705;28;20047;-67
2022/06/22 22:26:41;;;;;;;16.13;1.23;;;;;;;;;;4991448;28;20063;-67
2022/06/22 22:29:11;;;;;;;21.95;1.73;;;;;;;;;;4988779;28;20049;-67
2022/06/22 22:31:38;;;;;;;18.98;2.10;;;;;;;;;;4987982;28;20049;-70
2022/06/22 22:34:11;;;;;;;15.43;2.15;;;;;;;;;;5049062;28;20595;-70
2022/06/22 22:36:38;;;;;;;29.67;2.27;;;;;;;;;;5049447;28;20068;-70
2022/06/22 22:39:08;;;;;;;8.30;0.73;;;;;;;;;;5049783;28;20365;-71
2022/06/22 22:41:35;;;;;;;23.35;2.70;;;;;;;;;;5052415;28;20047;-66
2022/06/22 22:44:06;;;;;;;47.88;5.28;;;;;;;;;;5050354;28;20137;-65
2022/06/22 22:46:34;;;;;;;15.60;1.88;;;;;;;;;;5049176;28;20047;-65
2022/06/22 22:49:03;;;;;;;4.38;0.68;;;;;;;;;;5048354;28;20041;-66
2022/06/22 22:51:36;;;;;;;17.40;1.42;;;;;;;;;;5049014;28;20045;-70
2022/06/22 22:54:05;;;;;;;6.77;1.57;;;;;;;;;;5049151;28;20037;-69
2022/06/22 22:56:32;;;;;;;28.15;3.15;;;;;;;;;;5052725;28;20324;-64
2022/06/22 22:59:03;;;;;;;3.70;0.70;;;;;;;;;;5050093;28;20512;-67
2022/06/22 23:01:32;;;;;;;14.30;2.05;;;;;;;;;;5048761;28;20033;-65
2022/06/22 23:03:59;;;;;;;14.43;1.17;;;;;;;;;;5048912;28;20124;-64
2022/06/22 23:06:27;;;;;;;14.35;1.20;;;;;;;;;;5048880;28;20033;-65
2022/06/22 23:08:58;;;;;;;5.45;0.45;;;;;;;;;;5049617;28;20116;-64
2022/06/22 23:11:35;;;;;;;20.40;2.13;;;;;;;;;;5053317;28;20127;-64
2022/06/22 23:14:04;;;;;;;10.88;1.30;;;;;;;;;;5050012;28;20043;-65
2022/06/22 23:16:35;;;;;;;24.83;3.55;;;;;;;;;;5048350;28;20128;-67
2022/06/22 23:19:08;;;;;;;7.18;1.05;;;;;;;;;;5048625;28;20131;-67
2022/06/22 23:21:36;;;;;;;21.40;2.40;;;;;;;;;;5048318;28;20452;-67
2022/06/22 23:24:11;;;;;;;20.60;1.58;;;;;;;;;;5047266;28;20038;-67
2022/06/22 23:26:42;;;;;;;17.73;1.65;;;;;;;;;;5053238;28;20045;-67
2022/06/22 23:29:09;;;;;;;21.70;1.92;;;;;;;;;;5056062;28;20125;-64
2022/06/22 23:31:46;;;;;;;11.85;1.05;;;;;;;;;;5041494;28;20042;-62
2022/06/22 23:34:32;;;;;;;12.60;1.65;;;;;;;;;;5044905;28;20469;-62
2022/06/22 23:36:59;;;;;;;9.55;2.00;;;;;;;;;;5048172;28;20029;-62
2022/06/22 23:39:29;;;;;;;9.95;1.17;;;;;;;;;;5046797;28;20064;-63
2022/06/22 23:42:06;;;;;;;39.10;2.80;;;;;;;;;;5048064;28;20064;-66
2022/06/22 23:44:33;;;;;;;12.60;1.10;;;;;;;;;;5048651;28;20072;-66
2022/06/22 23:49:47;;;;;;;6.97;0.63;;;;;;;;;;5047879;28;20040;-68
2022/06/22 23:52:17;;;;;;;18.80;1.45;;;;;;;;;;5047775;28;20064;-65
2022/06/22 23:54:44;;;;;;;17.65;1.45;;;;;;;;;;5047954;28;20036;-66
2022/06/22 23:57:30;;;;;;;13.27;1.00;;;;;;;;;;5047408;28;20122;-66
2022/06/22 23:59:59;;;;;;;17.15;1.35;;;;;;;;;;5048136;28;20837;-66
